Time;durP1;ratioP1;P1;durP2;ratioP2;P2;SDS_P1;SDS_P2;PMS_P1;PMS_P2;Temp;Humidity;BMP_temperature;BMP_pressure;BME280_temperature;BME280_humidity;BME280_pressure;Samples;Min_cycle;Max_cycle;Signal;HPM_P1;HPM_P2
2022/03/25 00:00:42;;;;;;;;;;;;;;;7.04;39.58;99897.72;5012531;28;846;-59
2022/03/25 00:03:09;;;;;;;;;;;;;;;6.93;40.30;99892.94;5012867;28;914;-59
2022/03/25 00:05:36;;;;;;;;;;;;;;;6.99;39.63;99893.34;5012462;28;888;-59
2022/03/25 00:08:03;;;;;;;;;;;;;;;7.07;39.03;99897.78;5012578;28;847;-59
2022/03/25 00:10:30;;;;;;;;;;;;;;;7.25;37.99;99877.91;5012410;28;819;-59
2022/03/25 00:12:57;;;;;;;;;;;;;;;7.55;37.93;99886.84;5012448;28;807;-59
2022/03/25 00:15:22;;;;;;;;;;;;;;;7.59;37.22;99881.38;5012363;28;1031;-59
2022/03/25 00:17:49;;;;;;;;;;;;;;;7.61;36.99;99894.75;5012402;28;799;-59
2022/03/25 00:20:15;;;;;;;;;;;;;;;7.57;36.99;99889.22;5012207;28;1964;-59
2022/03/25 00:22:42;;;;;;;;;;;;;;;7.38;37.38;99889.44;5012320;28;823;-59
2022/03/25 00:25:09;;;;;;;;;;;;;;;7.19;37.75;99882.16;5012392;28;1386;-59
2022/03/25 00:27:35;;;;;;;;;;;;;;;6.93;38.38;99881.13;5012102;28;855;-59
2022/03/25 00:30:03;;;;;;;;;;;;;;;6.82;38.79;99888.47;5011792;28;818;-59
2022/03/25 00:32:30;;;;;;;;;;;;;;;6.83;39.33;99890.03;5012122;28;941;-59
2022/03/25 00:34:57;;;;;;;;;;;;;;;6.75;39.52;99892.69;5012080;28;864;-59
2022/03/25 00:37:25;;;;;;;;;;;;;;;6.69;40.06;99890.66;5012117;28;799;-59
2022/03/25 00:39:52;;;;;;;;;;;;;;;6.56;39.97;99887.38;5011789;28;1910;-59
2022/03/25 00:42:19;;;;;;;;;;;;;;;6.50;40.09;99894.34;5011892;28;871;-59
2022/03/25 00:44:47;;;;;;;;;;;;;;;6.46;40.45;99899.00;5012031;28;847;-59
2022/03/25 00:47:14;;;;;;;;;;;;;;;6.51;40.98;99890.44;5011763;28;907;-59
2022/03/25 00:49:40;;;;;;;;;;;;;;;6.58;40.48;99890.53;5011898;28;835;-59
2022/03/25 00:52:07;;;;;;;;;;;;;;;6.73;39.52;99889.53;5011898;28;792;-59
2022/03/25 00:54:33;;;;;;;;;;;;;;;6.83;39.58;99896.34;5011796;28;910;-59
2022/03/25 00:57:02;;;;;;;;;;;;;;;6.78;39.35;99898.63;5011840;28;784;-59
2022/03/25 00:59:29;;;;;;;;;;;;;;;6.72;39.39;99898.97;5011635;28;1886;-58
2022/03/25 01:01:56;;;;;;;;;;;;;;;6.74;39.27;99888.38;5011831;28;878;-59
2022/03/25 01:04:22;;;;;;;;;;;;;;;6.77;38.91;99894.31;5011626;28;886;-59
2022/03/25 01:06:49;;;;;;;;;;;;;;;6.76;39.43;99890.75;5011699;28;859;-59
2022/03/25 01:09:15;;;;;;;;;;;;;;;6.83;39.39;99884.53;5011651;28;815;-59
2022/03/25 01:11:43;;;;;;;;;;;;;;;6.80;38.95;99888.81;5011745;28;862;-59
2022/03/25 01:14:09;;;;;;;;;;;;;;;6.84;38.34;99883.38;5011813;28;882;-59
2022/03/25 01:16:36;;;;;;;;;;;;;;;6.96;38.15;99883.13;5011682;28;834;-59
2022/03/25 01:19:03;;;;;;;;;;;;;;;7.00;38.38;99874.91;5011718;28;1906;-59
2022/03/25 01:21:29;;;;;;;;;;;;;;;6.97;37.93;99872.94;5011508;28;848;-59
2022/03/25 01:23:57;;;;;;;;;;;;;;;6.99;37.86;99860.38;5011922;28;890;-59
2022/03/25 01:26:23;;;;;;;;;;;;;;;6.95;37.89;99876.81;5011307;28;1277;-59
2022/03/25 01:28:50;;;;;;;;;;;;;;;6.94;38.31;99868.97;5010425;28;902;-59
2022/03/25 01:31:17;;;;;;;;;;;;;;;7.01;38.41;99868.25;5011550;28;815;-59
2022/03/25 01:33:44;;;;;;;;;;;;;;;6.88;38.74;99864.97;5011403;28;927;-59
2022/03/25 01:36:11;;;;;;;;;;;;;;;6.94;37.86;99872.50;5011649;28;822;-59
2022/03/25 01:38:38;;;;;;;;;;;;;;;7.04;37.37;99871.06;5011361;28;2013;-59
2022/03/25 01:41:06;;;;;;;;;;;;;;;6.93;38.17;99881.94;5012490;28;918;-58
2022/03/25 01:43:33;;;;;;;;;;;;;;;6.94;37.24;99880.75;5015253;28;858;-58
2022/03/25 01:46:00;;;;;;;;;;;;;;;6.95;37.58;99876.03;5015264;28;870;-59
2022/03/25 01:48:26;;;;;;;;;;;;;;;7.06;37.71;99871.47;5015138;28;839;-59
2022/03/25 01:50:52;;;;;;;;;;;;;;;6.95;37.83;99878.78;4997512;28;857;-59
2022/03/25 01:53:23;;;;;;;;;;;;;;;6.93;37.99;99878.38;5014942;28;850;-58
2022/03/25 01:55:52;;;;;;;;;;;;;;;6.82;38.24;99878.25;5015016;28;803;-59
2022/03/25 01:58:19;;;;;;;;;;;;;;;6.76;38.30;99882.50;5014905;28;1944;-59
2022/03/25 02:00:46;;;;;;;;;;;;;;;6.74;37.93;99882.88;5014883;28;854;-59
2022/03/25 02:03:13;;;;;;;;;;;;;;;6.82;37.44;99888.47;5014831;28;815;-59
2022/03/25 02:05:40;;;;;;;;;;;;;;;6.81;38.07;99881.41;5014768;28;918;-59
2022/03/25 02:08:08;;;;;;;;;;;;;;;6.85;37.13;99887.69;5014582;28;898;-59
2022/03/25 02:10:34;;;;;;;;;;;;;;;6.81;36.96;99884.16;5014696;28;870;-58
2022/03/25 02:13:01;;;;;;;;;;;;;;;6.70;37.41;99881.25;5014657;28;842;-58
2022/03/25 02:15:37;;;;;;;;;;;;;;;6.62;37.53;99874.88;5014555;28;1008;-59
2022/03/25 02:18:05;;;;;;;;;;;;;;;6.65;38.45;99873.34;5014475;28;1886;-58
2022/03/25 02:20:33;;;;;;;;;;;;;;;6.60;38.02;99877.22;5014612;28;1135;-58
2022/03/25 02:23:00;;;;;;;;;;;;;;;6.59;38.47;99870.13;5014509;28;835;-59
2022/03/25 02:25:29;;;;;;;;;;;;;;;6.65;37.72;99879.63;5014483;28;1406;-59
2022/03/25 02:27:59;;;;;;;;;;;;;;;6.64;38.27;99880.81;5014361;28;930;-59
2022/03/25 02:30:27;;;;;;;;;;;;;;;6.55;38.54;99872.06;5014197;28;938;-58
2022/03/25 02:32:57;;;;;;;;;;;;;;;6.53;38.11;99864.19;5014381;28;791;-59
2022/03/25 02:35:42;;;;;;;;;;;;;;;6.66;37.87;99872.97;5014176;28;923;-59
2022/03/25 02:38:10;;;;;;;;;;;;;;;6.66;37.59;99864.75;5014101;28;1910;-58
2022/03/25 02:40:36;;;;;;;;;;;;;;;6.63;37.70;99876.47;5014186;28;815;-58
2022/03/25 02:43:04;;;;;;;;;;;;;;;6.72;37.18;99868.75;5014048;28;839;-59
2022/03/25 02:45:30;;;;;;;;;;;;;;;6.69;37.94;99874.97;5014030;28;835;-58
2022/03/25 02:47:57;;;;;;;;;;;;;;;6.72;37.86;99878.91;5013962;28;938;-59
2022/03/25 02:50:22;;;;;;;;;;;;;;;6.79;37.39;99864.50;5013975;28;858;-58
2022/03/25 02:52:49;;;;;;;;;;;;;;;6.84;36.88;99875.94;5013589;28;870;-59
2022/03/25 02:55:15;;;;;;;;;;;;;;;6.77;36.86;99873.09;5014055;28;866;-59
2022/03/25 02:57:42;;;;;;;;;;;;;;;6.69;37.74;99874.19;5013794;28;937;-59
2022/03/25 03:00:09;;;;;;;;;;;;;;;6.69;36.92;99866.72;5013806;28;1949;-59
2022/03/25 03:02:37;;;;;;;;;;;;;;;6.72;36.49;99887.97;5013850;28;878;-59
2022/03/25 03:05:06;;;;;;;;;;;;;;;6.80;36.11;99877.06;5013664;28;829;-59
2022/03/25 03:07:35;;;;;;;;;;;;;;;6.82;35.94;99878.25;5013604;28;815;-59
2022/03/25 03:10:05;;;;;;;;;;;;;;;6.69;37.31;99872.22;5013557;28;883;-59
2022/03/25 03:12:32;;;;;;;;;;;;;;;6.58;37.07;99871.31;5013524;28;880;-59
2022/03/25 03:15:00;;;;;;;;;;;;;;;6.62;37.16;99883.13;5013532;28;853;-59
2022/03/25 03:17:27;;;;;;;;;;;;;;;6.56;36.37;99868.16;5013455;28;807;-60
2022/03/25 03:19:54;;;;;;;;;;;;;;;6.57;36.65;99868.94;5013343;28;1890;-59
2022/03/25 03:22:22;;;;;;;;;;;;;;;6.40;37.29;99859.28;5013405;28;788;-59
2022/03/25 03:24:48;;;;;;;;;;;;;;;6.36;36.79;99875.75;5013277;28;958;-59
2022/03/25 03:27:15;;;;;;;;;;;;;;;6.38;36.89;99865.19;5013062;28;1328;-59
2022/03/25 03:29:42;;;;;;;;;;;;;;;6.41;37.00;99874.63;5013285;28;831;-59
2022/03/25 03:32:09;;;;;;;;;;;;;;;6.31;37.31;99874.09;5013203;28;842;-59
2022/03/25 03:34:36;;;;;;;;;;;;;;;6.19;37.81;99868.84;5013096;28;914;-59
2022/03/25 03:37:03;;;;;;;;;;;;;;;6.19;37.46;99868.03;5011829;28;839;-59
2022/03/25 03:39:29;;;;;;;;;;;;;;;6.13;37.72;99876.59;5012930;28;1914;-59
2022/03/25 03:41:55;;;;;;;;;;;;;;;6.09;37.99;99873.00;5012891;28;987;-59
2022/03/25 03:44:23;;;;;;;;;;;;;;;5.96;38.14;99881.84;5013023;28;795;-59
2022/03/25 03:46:50;;;;;;;;;;;;;;;5.92;37.66;99884.50;5012849;28;934;-59
2022/03/25 03:49:16;;;;;;;;;;;;;;;5.95;37.74;99875.53;5012850;28;870;-59
2022/03/25 03:51:43;;;;;;;;;;;;;;;6.00;37.51;99901.91;5012774;28;946;-59
2022/03/25 03:54:11;;;;;;;;;;;;;;;5.99;37.58;99895.59;5012828;28;1022;-59
2022/03/25 03:56:37;;;;;;;;;;;;;;;5.91;37.88;99897.44;5012645;28;949;-59
2022/03/25 03:59:04;;;;;;;;;;;;;;;5.96;37.57;99901.03;5012697;28;1953;-59
2022/03/25 04:01:31;;;;;;;;;;;;;;;5.89;37.95;99897.00;5012839;28;784;-59
2022/03/25 04:03:57;;;;;;;;;;;;;;;5.78;37.90;99896.03;5011888;28;803;-59
2022/03/25 04:06:25;;;;;;;;;;;;;;;5.76;37.52;99901.09;5012502;28;838;-59
2022/03/25 04:08:52;;;;;;;;;;;;;;;5.78;37.25;99904.25;5012461;28;950;-59
2022/03/25 04:11:19;;;;;;;;;;;;;;;5.80;37.71;99899.19;5012508;28;885;-59
2022/03/25 04:13:45;;;;;;;;;;;;;;;5.72;38.30;99901.03;5012378;28;957;-59
2022/03/25 04:16:12;;;;;;;;;;;;;;;5.80;37.78;99907.41;5012452;28;811;-59
2022/03/25 04:18:39;;;;;;;;;;;;;;;5.83;37.79;99911.41;5012501;28;1937;-59
2022/03/25 04:21:07;;;;;;;;;;;;;;;5.82;36.96;99904.31;5012341;28;839;-59
2022/03/25 04:23:34;;;;;;;;;;;;;;;5.83;37.38;99901.22;5012271;28;1016;-59
2022/03/25 04:26:02;;;;;;;;;;;;;;;5.84;37.29;99912.97;5012111;28;1468;-60
2022/03/25 04:28:29;;;;;;;;;;;;;;;5.99;36.72;99928.53;5012120;28;1181;-58
2022/03/25 04:30:55;;;;;;;;;;;;;;;6.09;36.72;99922.41;5012230;28;830;-60
2022/03/25 04:33:21;;;;;;;;;;;;;;;6.01;37.27;99917.19;5012197;28;891;-59
2022/03/25 04:35:48;;;;;;;;;;;;;;;5.93;37.76;99932.69;5012205;28;851;-58
2022/03/25 04:38:15;;;;;;;;;;;;;;;5.97;36.91;99941.03;5011989;28;1978;-59
2022/03/25 04:40:42;;;;;;;;;;;;;;;6.05;36.77;99950.97;5011969;28;792;-59
2022/03/25 04:43:09;;;;;;;;;;;;;;;6.24;36.80;99947.34;5012060;28;823;-60
2022/03/25 04:45:36;;;;;;;;;;;;;;;6.31;36.20;99942.72;5011874;28;878;-59
2022/03/25 04:48:04;;;;;;;;;;;;;;;6.49;35.43;99940.25;5011975;28;811;-59
2022/03/25 04:50:31;;;;;;;;;;;;;;;6.57;35.87;99949.34;5010655;28;929;-59
2022/03/25 04:52:58;;;;;;;;;;;;;;;6.62;35.14;99948.25;5011917;28;787;-59
2022/03/25 04:55:24;;;;;;;;;;;;;;;6.68;36.04;99947.56;5011810;28;946;-59
2022/03/25 04:57:51;;;;;;;;;;;;;;;6.84;35.16;99960.31;5011813;28;839;-59
2022/03/25 05:00:18;;;;;;;;;;;;;;;6.94;35.26;99968.69;5011741;28;1945;-60
2022/03/25 05:02:45;;;;;;;;;;;;;;;7.06;35.17;99975.91;5011809;28;803;-60
2022/03/25 05:05:13;;;;;;;;;;;;;;;7.25;33.89;99972.16;5011720;28;941;-59
2022/03/25 05:07:46;;;;;;;;;;;;;;;7.41;34.02;99977.47;5011779;28;931;-59
2022/03/25 05:10:13;;;;;;;;;;;;;;;7.57;33.55;99985.47;5011622;28;866;-59
2022/03/25 05:12:40;;;;;;;;;;;;;;;7.65;33.82;99978.09;5011730;28;827;-59
2022/03/25 05:15:07;;;;;;;;;;;;;;;7.67;33.59;99987.56;5013109;28;791;-59
2022/03/25 05:17:33;;;;;;;;;;;;;;;7.71;34.06;99990.34;5015709;28;917;-59
2022/03/25 05:20:04;;;;;;;;;;;;;;;7.75;33.27;99988.44;5015608;28;1886;-59
2022/03/25 05:22:30;;;;;;;;;;;;;;;7.74;32.92;99995.09;5015698;28;842;-59
2022/03/25 05:24:57;;;;;;;;;;;;;;;7.79;32.93;99972.75;5015832;28;868;-58
2022/03/25 05:27:24;;;;;;;;;;;;;;;7.96;33.01;99987.84;5015460;28;1458;-59
2022/03/25 05:29:51;;;;;;;;;;;;;;;8.17;33.56;99992.69;5015484;28;842;-59
2022/03/25 05:32:17;;;;;;;;;;;;;;;8.38;32.80;99990.13;5015438;28;897;-59
2022/03/25 05:34:44;;;;;;;;;;;;;;;8.52;32.71;99988.66;5015335;28;855;-60
2022/03/25 05:37:11;;;;;;;;;;;;;;;8.57;31.68;99985.53;5015337;28;858;-59
2022/03/25 05:39:37;;;;;;;;;;;;;;;8.54;31.80;99986.31;5015321;28;1898;-59
2022/03/25 05:42:03;;;;;;;;;;;;;;;8.59;32.36;99997.75;5015252;28;963;-59
2022/03/25 05:44:30;;;;;;;;;;;;;;;8.66;32.11;100001.72;5015338;28;811;-59
2022/03/25 05:46:57;;;;;;;;;;;;;;;8.69;32.23;99996.25;5015116;28;907;-59
2022/03/25 05:49:24;;;;;;;;;;;;;;;8.99;32.54;99982.22;5015314;28;835;-59
2022/03/25 05:51:51;;;;;;;;;;;;;;;9.20;32.04;99992.53;5015223;28;834;-59
2022/03/25 05:54:17;;;;;;;;;;;;;;;9.41;31.58;99991.03;5015322;28;878;-59
2022/03/25 05:56:44;;;;;;;;;;;;;;;9.58;31.50;99982.03;5015259;28;780;-58
2022/03/25 05:59:11;;;;;;;;;;;;;;;9.88;30.68;99996.63;5014975;28;1967;-59
2022/03/25 06:01:38;;;;;;;;;;;;;;;10.05;30.85;99995.88;5015173;28;826;-59
2022/03/25 06:04:05;;;;;;;;;;;;;;;10.08;30.50;99997.84;5015134;28;1270;-60
2022/03/25 06:06:30;;;;;;;;;;;;;;;10.01;30.21;100003.38;5014894;28;819;-59
2022/03/25 06:08:57;;;;;;;;;;;;;;;9.92;30.46;100001.00;5014702;28;847;-60
2022/03/25 06:11:24;;;;;;;;;;;;;;;9.82;30.57;100004.53;5014764;28;799;-60
2022/03/25 06:13:50;;;;;;;;;;;;;;;9.94;30.75;100001.41;5014574;28;903;-58
2022/03/25 06:16:17;;;;;;;;;;;;;;;10.02;29.76;100002.94;5014631;28;791;-59
2022/03/25 06:18:43;;;;;;;;;;;;;;;10.07;30.22;100015.59;5014492;28;1886;-60
2022/03/25 06:21:10;;;;;;;;;;;;;;;10.42;29.28;100014.81;5014506;28;799;-59
2022/03/25 06:23:36;;;;;;;;;;;;;;;10.47;29.01;100010.09;5014559;28;996;-59
2022/03/25 06:26:05;;;;;;;;;;;;;;;10.59;29.35;100013.22;5013941;28;1240;-59
2022/03/25 06:28:31;;;;;;;;;;;;;;;10.63;29.79;100016.00;5014031;28;905;-59
2022/03/25 06:30:58;;;;;;;;;;;;;;;11.08;29.13;100019.03;5014647;28;823;-59
2022/03/25 06:33:25;;;;;;;;;;;;;;;11.07;28.18;100022.19;5014318;28;855;-59
2022/03/25 06:35:52;;;;;;;;;;;;;;;11.03;28.27;100023.00;5014103;28;914;-59
2022/03/25 06:38:18;;;;;;;;;;;;;;;11.16;28.24;100026.13;5014249;28;1910;-59
2022/03/25 06:40:45;;;;;;;;;;;;;;;11.41;28.26;100033.50;5014391;28;859;-59
2022/03/25 06:43:12;;;;;;;;;;;;;;;11.51;28.90;100021.59;5014088;28;886;-59
2022/03/25 06:45:38;;;;;;;;;;;;;;;11.79;27.79;100028.94;5014104;28;979;-59
2022/03/25 06:48:05;;;;;;;;;;;;;;;11.72;27.77;100042.06;5014125;28;815;-59
2022/03/25 06:50:32;;;;;;;;;;;;;;;11.53;27.69;100044.13;5013983;28;1033;-59
2022/03/25 06:53:01;;;;;;;;;;;;;;;11.95;27.56;100047.06;5013963;28;799;-59
2022/03/25 06:55:28;;;;;;;;;;;;;;;12.11;27.56;100046.59;4996422;28;816;-59
2022/03/25 06:57:54;;;;;;;;;;;;;;;12.32;27.81;100051.19;5013919;28;814;-59
2022/03/25 07:00:21;;;;;;;;;;;;;;;12.19;26.97;100048.91;5013741;28;1945;-59
2022/03/25 07:02:49;;;;;;;;;;;;;;;11.77;27.40;100042.41;5013767;28;1029;-59
2022/03/25 07:05:16;;;;;;;;;;;;;;;11.79;28.06;100055.84;5013602;28;827;-59
2022/03/25 07:07:43;;;;;;;;;;;;;;;12.16;27.74;100046.13;5013733;28;834;-59
2022/03/25 07:10:11;;;;;;;;;;;;;;;12.57;27.06;100057.31;5013671;28;803;-59
2022/03/25 07:12:38;;;;;;;;;;;;;;;12.44;27.14;100057.00;5013605;28;839;-59
2022/03/25 07:15:05;;;;;;;;;;;;;;;12.79;26.70;100060.66;5013609;28;881;-59
2022/03/25 07:17:32;;;;;;;;;;;;;;;12.91;26.72;100066.88;5013403;28;910;-59
2022/03/25 07:19:58;;;;;;;;;;;;;;;13.24;26.18;100068.88;5013328;28;1885;-59
2022/03/25 07:22:25;;;;;;;;;;;;;;;13.52;25.59;100072.56;5013385;28;815;-59
2022/03/25 07:24:51;;;;;;;;;;;;;;;13.45;26.08;100072.66;5013765;28;938;-59
2022/03/25 07:27:18;;;;;;;;;;;;;;;13.89;26.19;100065.34;5013118;28;1294;-59
2022/03/25 07:29:45;;;;;;;;;;;;;;;13.80;25.83;100067.81;5013301;28;819;-59
2022/03/25 07:32:11;;;;;;;;;;;;;;;14.11;25.36;100081.69;5013157;28;882;-59
2022/03/25 07:34:38;;;;;;;;;;;;;;;14.01;24.99;100072.28;5013034;28;907;-59
2022/03/25 07:37:05;;;;;;;;;;;;;;;13.83;25.97;100067.00;5013137;28;791;-59
2022/03/25 07:39:31;;;;;;;;;;;;;;;13.41;25.52;100074.69;5011928;28;1969;-59
2022/03/25 07:41:58;;;;;;;;;;;;;;;13.83;25.53;100070.56;5013009;28;824;-59
2022/03/25 07:44:25;;;;;;;;;;;;;;;13.71;25.36;100073.13;5012974;28;1673;-59
2022/03/25 07:46:51;;;;;;;;;;;;;;;13.67;25.76;100076.72;5012942;28;807;-59
2022/03/25 07:49:21;;;;;;;;;;;;;;;14.01;26.03;100075.06;5012809;28;912;-59
2022/03/25 07:51:48;;;;;;;;;;;;;;;14.26;24.92;100069.13;5012897;28;843;-59
2022/03/25 07:54:15;;;;;;;;;;;;;;;14.53;24.37;100071.06;5012746;28;810;-59
2022/03/25 07:56:42;;;;;;;;;;;;;;;14.67;24.93;100062.53;5012715;28;891;-59
2022/03/25 07:59:09;;;;;;;;;;;;;;;15.09;23.98;100071.31;5012546;28;1952;-59
2022/03/25 08:01:35;;;;;;;;;;;;;;;15.12;24.73;100064.88;5012667;28;808;-59
2022/03/25 08:04:02;;;;;;;;;;;;;;;14.96;24.02;100065.59;5012517;28;843;-59
2022/03/25 08:06:29;;;;;;;;;;;;;;;14.56;24.56;100059.94;5012646;28;799;-59
2022/03/25 08:08:59;;;;;;;;;;;;;;;14.89;23.81;100054.56;5012503;28;837;-59
2022/03/25 08:11:25;;;;;;;;;;;;;;;15.12;23.59;100056.53;5012732;28;914;-59
2022/03/25 08:13:52;;;;;;;;;;;;;;;14.92;23.87;100058.53;5012525;28;816;-59
2022/03/25 08:16:19;;;;;;;;;;;;;;;14.37;24.21;100049.50;5012379;28;803;-59
2022/03/25 08:18:46;;;;;;;;;;;;;;;13.94;24.66;100052.94;5011102;28;1971;-59
2022/03/25 08:21:13;;;;;;;;;;;;;;;13.79;24.70;100055.16;5012310;28;886;-59
2022/03/25 08:29:10;;;;;;;;;;;;;;;13.91;24.76;100057.34;5012548;28;653;-59
2022/03/25 08:31:36;;;;;;;;;;;;;;;13.95;26.13;100046.19;5012185;28;874;-59
2022/03/25 08:34:07;;;;;;;;;;;;;;;13.58;25.40;100047.88;5012048;28;978;-59
2022/03/25 08:36:34;;;;;;;;;;;;;;;13.50;24.99;100049.19;5012102;28;930;-59
2022/03/25 08:39:01;;;;;;;;;;;;;;;13.85;24.15;100045.94;5010745;28;1922;-59
2022/03/25 08:41:27;;;;;;;;;;;;;;;14.55;22.89;100049.19;5011995;28;874;-59
2022/03/25 08:43:53;;;;;;;;;;;;;;;14.24;23.75;100049.31;5012163;28;819;-59
2022/03/25 08:46:20;;;;;;;;;;;;;;;13.93;23.02;100049.38;4994410;28;890;-59
2022/03/25 08:48:47;;;;;;;;;;;;;;;13.98;23.85;100059.25;5011962;28;912;-59
2022/03/25 08:51:14;;;;;;;;;;;;;;;14.00;24.64;100060.41;5011715;28;889;-59
2022/03/25 08:53:41;;;;;;;;;;;;;;;14.24;24.02;100054.88;5011869;28;923;-58
2022/03/25 08:56:07;;;;;;;;;;;;;;;14.85;22.68;100053.84;5011830;28;882;-58
2022/03/25 08:58:34;;;;;;;;;;;;;;;15.16;23.11;100054.47;5011688;28;1906;-58
2022/03/25 09:01:02;;;;;;;;;;;;;;;14.92;23.00;100058.53;5011663;28;1163;-59
2022/03/25 09:03:29;;;;;;;;;;;;;;;15.03;23.48;100050.75;5011709;28;787;-59
2022/03/25 09:05:55;;;;;;;;;;;;;;;15.48;24.39;100059.38;5011818;28;851;-59
2022/03/25 09:08:22;;;;;;;;;;;;;;;15.14;23.51;100053.31;5011881;28;829;-58
2022/03/25 09:10:49;;;;;;;;;;;;;;;15.26;24.74;100059.03;5011749;28;791;-59
2022/03/25 09:13:16;;;;;;;;;;;;;;;15.39;23.74;100050.03;5011718;28;822;-58
2022/03/25 09:15:43;;;;;;;;;;;;;;;15.29;23.79;100043.47;5011609;28;946;-58
2022/03/25 09:18:09;;;;;;;;;;;;;;;14.96;23.95;100046.09;5011684;28;811;-59
2022/03/25 09:20:36;;;;;;;;;;;;;;;14.87;23.45;100038.31;5011496;28;1987;-59
2022/03/25 09:23:02;;;;;;;;;;;;;;;14.98;23.64;100040.09;5011684;28;899;-59
2022/03/25 09:25:30;;;;;;;;;;;;;;;15.08;22.96;100039.91;5011665;28;1351;-59
2022/03/25 09:27:57;;;;;;;;;;;;;;;14.87;24.55;100037.50;5011560;28;954;-59
2022/03/25 09:30:24;;;;;;;;;;;;;;;14.76;24.54;100045.28;5011513;28;821;-59
2022/03/25 09:32:50;;;;;;;;;;;;;;;14.90;24.68;100036.69;5011374;28;859;-58
2022/03/25 09:35:16;;;;;;;;;;;;;;;15.11;24.34;100041.06;5011517;28;859;-59
2022/03/25 09:37:44;;;;;;;;;;;;;;;14.89;24.43;100044.25;5011544;28;893;-59
2022/03/25 09:40:14;;;;;;;;;;;;;;;14.63;23.75;100050.69;5011322;28;2005;-59
2022/03/25 09:42:41;;;;;;;;;;;;;;;14.49;23.72;100040.56;5011513;28;799;-59
2022/03/25 09:45:09;;;;;;;;;;;;;;;14.85;25.25;100037.97;5011407;28;877;-59
2022/03/25 09:47:36;;;;;;;;;;;;;;;15.38;24.13;100038.09;5011518;28;803;-59
2022/03/25 09:50:05;;;;;;;;;;;;;;;15.31;24.67;100043.81;5011581;28;858;-60
2022/03/25 09:52:33;;;;;;;;;;;;;;;15.09;24.04;100032.34;5011223;28;1038;-59
2022/03/25 09:55:00;;;;;;;;;;;;;;;15.59;25.24;100028.50;5011289;28;899;-59
2022/03/25 10:25:59;;;;;;;;;;;;;;;15.57;23.15;99999.50;5247968;23;1771;-59
2022/03/25 10:28:27;;;;;;;;;;;;;;;15.65;24.75;99998.91;5114830;28;904;-59
2022/03/25 10:30:59;;;;;;;;;;;;;;;15.65;25.47;99996.13;5114720;28;845;-58
2022/03/25 10:33:26;;;;;;;;;;;;;;;15.86;23.77;99999.69;5114922;28;801;-59
2022/03/25 10:35:54;;;;;;;;;;;;;;;15.86;23.65;100005.25;5114713;28;794;-59
2022/03/25 10:38:22;;;;;;;;;;;;;;;15.46;23.72;99994.97;5114504;28;2035;-59
2022/03/25 10:40:52;;;;;;;;;;;;;;;15.38;24.57;99992.75;5114446;28;904;-59
2022/03/25 10:43:19;;;;;;;;;;;;;;;15.36;25.03;100000.75;5114519;28;864;-58
2022/03/25 10:45:46;;;;;;;;;;;;;;;15.34;23.91;99987.28;5114719;28;817;-58
2022/03/25 10:48:14;;;;;;;;;;;;;;;15.51;23.75;99996.44;5114399;28;956;-58
2022/03/25 10:50:54;;;;;;;;;;;;;;;15.55;24.02;99980.44;5079803;28;778;-58
2022/03/25 10:53:21;;;;;;;;;;;;;;;15.61;24.38;99981.50;5114299;28;901;-59
2022/03/25 10:55:56;;;;;;;;;;;;;;;15.74;23.29;99983.63;5114179;28;841;-58
2022/03/25 10:58:23;;;;;;;;;;;;;;;15.39;22.50;99974.84;5114090;28;1886;-59
2022/03/25 11:00:50;;;;;;;;;;;;;;;15.54;23.52;99978.09;5114768;28;825;-59
2022/03/25 11:03:17;;;;;;;;;;;;;;;15.95;23.66;99974.00;5114082;28;892;-58
2022/03/25 11:05:44;;;;;;;;;;;;;;;15.97;22.20;99965.97;5114555;28;802;-58
2022/03/25 11:08:11;;;;;;;;;;;;;;;15.68;23.22;99967.41;5114440;28;734;-58
2022/03/25 11:10:38;;;;;;;;;;;;;;;15.70;23.22;99966.97;5114022;28;810;-59
2022/03/25 11:13:04;;;;;;;;;;;;;;;15.60;23.88;99968.03;5113715;28;865;-59
2022/03/25 11:15:32;;;;;;;;;;;;;;;15.64;24.47;99974.25;5113888;28;818;-59
2022/03/25 11:17:58;;;;;;;;;;;;;;;15.83;23.12;99978.25;5113959;28;830;-59
2022/03/25 11:20:26;;;;;;;;;;;;;;;15.90;22.23;99981.66;5113704;28;1998;-59
2022/03/25 11:23:00;;;;;;;;;;;;;;;15.80;23.19;99971.53;5114590;28;750;-58
2022/03/25 11:25:29;;;;;;;;;;;;;;;16.07;22.49;99964.94;5113634;28;1188;-59
2022/03/25 11:28:03;;;;;;;;;;;;;;;16.04;22.06;99955.41;5113720;28;865;-58
2022/03/25 11:30:35;;;;;;;;;;;;;;;15.98;22.89;99957.19;5113504;28;908;-59
2022/03/25 11:33:04;;;;;;;;;;;;;;;16.05;23.18;99961.81;5114075;28;902;-59
2022/03/25 11:35:32;;;;;;;;;;;;;;;16.24;23.24;99951.78;5113607;28;928;-59
2022/03/25 11:38:11;;;;;;;;;;;;;;;16.35;21.73;99959.84;5113442;28;896;-59
2022/03/25 11:40:42;;;;;;;;;;;;;;;16.35;21.52;99946.69;5113234;28;1980;-59
2022/03/25 11:43:18;;;;;;;;;;;;;;;16.92;22.79;99938.78;5113246;28;885;-58
2022/03/25 11:45:46;;;;;;;;;;;;;;;17.12;20.95;99942.16;5113298;28;861;-59
2022/03/25 11:48:13;;;;;;;;;;;;;;;17.57;21.71;99936.84;5113274;28;833;-59
2022/03/25 11:50:40;;;;;;;;;;;;;;;17.66;21.06;99934.16;5113169;28;933;-58
2022/03/25 11:53:13;;;;;;;;;;;;;;;17.66;21.59;99922.97;5113065;28;825;-58
2022/03/25 11:55:52;;;;;;;;;;;;;;;17.86;20.94;99931.13;5113071;28;833;-59
2022/03/25 11:58:19;;;;;;;;;;;;;;;18.43;20.65;99928.44;5113148;28;890;-59
2022/03/25 12:00:48;;;;;;;;;;;;;;;18.46;21.44;99917.13;5112902;28;1886;-59
2022/03/25 12:03:15;;;;;;;;;;;;;;;18.36;22.46;99927.44;5112954;28;876;-59
2022/03/25 12:05:58;;;;;;;;;;;;;;;18.39;21.61;99922.94;5112915;28;806;-59
2022/03/25 12:08:28;;;;;;;;;;;;;;;18.21;21.35;99923.56;5113033;28;932;-59
2022/03/25 12:10:56;;;;;;;;;;;;;;;17.70;22.10;99923.66;5112677;28;846;-59
2022/03/25 12:13:23;;;;;;;;;;;;;;;17.51;21.37;99917.84;5112793;28;873;-59
2022/03/25 12:15:54;;;;;;;;;;;;;;;17.78;20.97;99927.78;5112743;28;1001;-59
2022/03/25 12:18:40;;;;;;;;;;;;;;;17.79;21.57;99926.53;5112737;28;856;-59
2022/03/25 12:21:23;;;;;;;;;;;;;;;18.27;21.07;99932.97;5112735;28;805;-59
2022/03/25 12:23:58;;;;;;;;;;;;;;;18.88;20.15;99925.22;5112492;28;1017;-59
2022/03/25 12:26:32;;;;;;;;;;;;;;;18.28;20.07;99926.13;5111977;28;1370;-59
2022/03/25 12:28:59;;;;;;;;;;;;;;;17.16;21.07;99928.09;5112496;28;794;-59
2022/03/25 12:31:25;;;;;;;;;;;;;;;17.30;21.54;99918.50;5112467;28;881;-59
2022/03/25 12:33:53;;;;;;;;;;;;;;;16.79;21.44;99927.56;5112399;28;841;-58
2022/03/25 12:36:21;;;;;;;;;;;;;;;15.98;23.04;99932.09;5112360;28;909;-60
2022/03/25 12:38:48;;;;;;;;;;;;;;;15.38;23.09;99928.72;5112331;28;1906;-58
2022/03/25 12:41:35;;;;;;;;;;;;;;;15.08;23.75;99920.22;5112280;28;805;-59
2022/03/25 12:44:03;;;;;;;;;;;;;;;14.81;24.03;99925.16;5112336;28;1654;-58
2022/03/25 12:46:30;;;;;;;;;;;;;;;15.19;24.18;99914.41;5112134;28;1030;-58
2022/03/25 12:49:06;;;;;;;;;;;;;;;15.45;23.45;99911.84;5112144;28;917;-59
2022/03/25 12:51:33;;;;;;;;;;;;;;;15.39;23.92;99906.00;5112181;28;853;-59
2022/03/25 12:54:00;;;;;;;;;;;;;;;15.80;23.70;99890.72;5112219;28;845;-58
2022/03/25 12:56:26;;;;;;;;;;;;;;;15.83;23.85;99905.78;5112006;28;932;-58
2022/03/25 12:58:53;;;;;;;;;;;;;;;15.65;23.20;99909.75;5111925;28;1886;-59
2022/03/25 13:01:20;;;;;;;;;;;;;;;16.44;22.92;99907.00;5111959;28;908;-59
2022/03/25 13:03:47;;;;;;;;;;;;;;;17.91;22.00;99899.84;5093820;28;2426;-58
2022/03/25 13:06:16;;;;;;;;;;;;;;;18.20;20.77;99904.44;5112032;28;841;-59
2022/03/25 13:08:43;;;;;;;;;;;;;;;16.94;21.59;99909.19;5111907;28;858;-59
2022/03/25 13:11:10;;;;;;;;;;;;;;;15.98;22.12;99915.38;5111892;28;898;-58
2022/03/25 13:13:38;;;;;;;;;;;;;;;15.58;23.04;99912.72;5111909;28;1116;-58
2022/03/25 13:16:06;;;;;;;;;;;;;;;15.30;23.23;99912.16;5111898;28;1125;-58
2022/03/25 13:18:34;;;;;;;;;;;;;;;15.15;22.79;99919.28;5093516;28;1955;-59
2022/03/25 13:21:01;;;;;;;;;;;;;;;15.59;22.89;99927.44;5112182;28;861;-59
2022/03/25 13:23:28;;;;;;;;;;;;;;;15.66;22.94;99924.47;5112072;28;1033;-59
2022/03/25 13:25:57;;;;;;;;;;;;;;;15.35;22.28;99935.94;5111548;28;1207;-58
2022/03/25 13:28:34;;;;;;;;;;;;;;;15.24;23.92;99944.53;5093713;28;2326;-58
2022/03/25 13:31:03;;;;;;;;;;;;;;;14.67;28.48;99957.59;5111846;28;821;-58
2022/03/25 13:33:45;;;;;;;;;;;;;;;14.02;29.22;99957.94;5112007;28;857;-58
2022/03/25 13:36:12;;;;;;;;;;;;;;;13.54;29.98;99955.50;5113180;28;865;-58
2022/03/25 13:38:41;;;;;;;;;;;;;;;13.27;30.59;99942.34;5115687;28;1917;-58
2022/03/25 13:41:09;;;;;;;;;;;;;;;12.85;31.40;99952.81;5115883;28;853;-58
2022/03/25 13:43:37;;;;;;;;;;;;;;;12.58;31.40;99952.72;5116081;28;873;-58